KLM1959 EHAM-LTFM
Flight info
| Callsign | KLM1959 |
|---|---|
| Flight time | 2h 40m |
| Altitude | 37000 |
| Route | EDUPO Z739 MISGO DCT GMH DCT EKSAK DCT SWALM DCT GASKA DCT ENITA DCT ETVIS DCT BUDEX DCT TEKNO DCT OGVUN DCT DUZLA DCT MAVIR DCT TIMUR L606 GASRU DCT RILEX |
| Aircraft | B77W/H-SDE1E2E3FGHIJ2J3J4J5M1RWXY/LB1D1 |
Departure
| Time | 2026-05-07 15:03 |
|---|---|
| Airport | Amsterdam Airport Schiphol (EHAM) |
Arrival
| Time | 2026-05-07 17:44 |
|---|---|
| Airport | İstanbul Airport (LTFM) |
| Time | Latitude | Longitude | Altitude | Speed | Heading |
|---|---|---|---|---|---|
| 2026-05-07 13:53 | 52.31113 | 4.76718 | 4 ft | 0 kts | 304° |
| 2026-05-07 14:39 | 52.31113 | 4.76719 | 4 ft | 1 kts | 304° |
| 2026-05-07 14:39 | 52.31099 | 4.76751 | 4 ft | 4 kts | 308° |
| 2026-05-07 14:39 | 52.31082 | 4.76784 | 6 ft | 4 kts | 317° |
| 2026-05-07 14:39 | 52.31062 | 4.76809 | 6 ft | 4 kts | 335° |
| 2026-05-07 14:40 | 52.31042 | 4.76820 | 6 ft | 4 kts | 9° |
| 2026-05-07 14:40 | 52.31032 | 4.76815 | 6 ft | 1 kts | 34° |
| 2026-05-07 14:47 | 52.31037 | 4.76821 | 7 ft | 3 kts | 34° |
| 2026-05-07 14:47 | 52.31065 | 4.76856 | 5 ft | 6 kts | 47° |
| 2026-05-07 14:48 | 52.31084 | 4.76942 | 4 ft | 10 kts | 82° |
| 2026-05-07 14:48 | 52.31081 | 4.77078 | 4 ft | 14 kts | 95° |
| 2026-05-07 14:48 | 52.31074 | 4.77250 | 4 ft | 15 kts | 93° |
| 2026-05-07 14:48 | 52.31071 | 4.77320 | 4 ft | 5 kts | 93° |
| 2026-05-07 14:49 | 52.31069 | 4.77380 | 4 ft | 6 kts | 93° |
| 2026-05-07 14:49 | 52.31072 | 4.77443 | 4 ft | 6 kts | 75° |
| 2026-05-07 14:49 | 52.31102 | 4.77487 | 4 ft | 6 kts | 20° |
| 2026-05-07 14:49 | 52.31146 | 4.77498 | 4 ft | 7 kts | 6° |
| 2026-05-07 14:50 | 52.31192 | 4.77502 | 4 ft | 7 kts | 2° |
| 2026-05-07 14:50 | 52.31237 | 4.77505 | 4 ft | 7 kts | 2° |
| 2026-05-07 14:50 | 52.31282 | 4.77490 | 4 ft | 7 kts | 341° |
| 2026-05-07 14:50 | 52.31323 | 4.77456 | 4 ft | 7 kts | 327° |
| 2026-05-07 14:51 | 52.31354 | 4.77397 | 4 ft | 7 kts | 308° |
| 2026-05-07 14:51 | 52.31362 | 4.77380 | 4 ft | 0 kts | 308° |
| 2026-05-07 14:51 | 52.31366 | 4.77374 | 4 ft | 2 kts | 308° |
| 2026-05-07 14:51 | 52.31383 | 4.77339 | 4 ft | 6 kts | 308° |
| 2026-05-07 14:52 | 52.31413 | 4.77280 | 4 ft | 7 kts | 310° |
| 2026-05-07 14:52 | 52.31448 | 4.77222 | 4 ft | 7 kts | 323° |
| 2026-05-07 14:52 | 52.31494 | 4.77202 | 4 ft | 7 kts | 359° |
| 2026-05-07 14:52 | 52.31541 | 4.77180 | 4 ft | 7 kts | 321° |
| 2026-05-07 14:53 | 52.31564 | 4.77104 | 4 ft | 8 kts | 279° |
| 2026-05-07 14:53 | 52.31565 | 4.77014 | 4 ft | 8 kts | 268° |
| 2026-05-07 14:53 | 52.31562 | 4.76927 | 4 ft | 7 kts | 267° |
| 2026-05-07 14:53 | 52.31559 | 4.76842 | 4 ft | 7 kts | 267° |
| 2026-05-07 14:54 | 52.31558 | 4.76797 | 4 ft | 2 kts | 267° |
| 2026-05-07 14:54 | 52.31557 | 4.76772 | 4 ft | 4 kts | 266° |
| 2026-05-07 14:54 | 52.31555 | 4.76710 | 4 ft | 7 kts | 266° |
| 2026-05-07 14:54 | 52.31552 | 4.76633 | 4 ft | 7 kts | 266° |
| 2026-05-07 14:55 | 52.31550 | 4.76560 | 4 ft | 6 kts | 266° |
| 2026-05-07 14:55 | 52.31547 | 4.76492 | 4 ft | 6 kts | 266° |
| 2026-05-07 14:55 | 52.31545 | 4.76423 | 4 ft | 6 kts | 266° |
| 2026-05-07 14:55 | 52.31542 | 4.76354 | 4 ft | 6 kts | 266° |
| 2026-05-07 14:56 | 52.31539 | 4.76282 | 4 ft | 7 kts | 266° |
| 2026-05-07 14:56 | 52.31537 | 4.76205 | 4 ft | 7 kts | 267° |
| 2026-05-07 14:56 | 52.31534 | 4.76126 | 4 ft | 7 kts | 267° |
| 2026-05-07 14:56 | 52.31532 | 4.76045 | 4 ft | 7 kts | 267° |
| 2026-05-07 14:57 | 52.31529 | 4.75965 | 4 ft | 7 kts | 266° |
| 2026-05-07 14:57 | 52.31526 | 4.75883 | 4 ft | 7 kts | 266° |
| 2026-05-07 14:57 | 52.31523 | 4.75796 | 4 ft | 8 kts | 266° |
| 2026-05-07 14:57 | 52.31520 | 4.75704 | 4 ft | 8 kts | 266° |
| 2026-05-07 14:58 | 52.31517 | 4.75612 | 4 ft | 8 kts | 266° |
| 2026-05-07 14:58 | 52.31514 | 4.75521 | 4 ft | 8 kts | 266° |
| 2026-05-07 14:58 | 52.31510 | 4.75429 | 4 ft | 8 kts | 266° |
| 2026-05-07 14:58 | 52.31507 | 4.75337 | 4 ft | 8 kts | 266° |
| 2026-05-07 14:59 | 52.31504 | 4.75244 | 4 ft | 8 kts | 266° |
| 2026-05-07 14:59 | 52.31501 | 4.75149 | 4 ft | 8 kts | 266° |
| 2026-05-07 14:59 | 52.31498 | 4.75055 | 4 ft | 8 kts | 266° |
| 2026-05-07 14:59 | 52.31494 | 4.74960 | 4 ft | 8 kts | 266° |
| 2026-05-07 15:00 | 52.31491 | 4.74864 | 4 ft | 9 kts | 266° |
| 2026-05-07 15:00 | 52.31488 | 4.74768 | 4 ft | 9 kts | 270° |
| 2026-05-07 15:00 | 52.31512 | 4.74679 | 4 ft | 9 kts | 317° |
| 2026-05-07 15:00 | 52.31570 | 4.74660 | 4 ft | 9 kts | 359° |
| 2026-05-07 15:01 | 52.31629 | 4.74672 | 4 ft | 9 kts | 24° |
| 2026-05-07 15:01 | 52.31663 | 4.74753 | 4 ft | 9 kts | 75° |
| 2026-05-07 15:01 | 52.31670 | 4.74838 | 3 ft | 0 kts | 85° |
| 2026-05-07 15:01 | 52.31670 | 4.74839 | 3 ft | 0 kts | 85° |
| 2026-05-07 15:02 | 52.31671 | 4.74857 | 3 ft | 0 kts | 85° |
| 2026-05-07 15:02 | 52.31671 | 4.74858 | 3 ft | 1 kts | 85° |
| 2026-05-07 15:02 | 52.31681 | 4.75133 | 2 ft | 56 kts | 88° |
| 2026-05-07 15:03 | 52.31718 | 4.76211 | 4 ft | 132 kts | 86° |
| 2026-05-07 15:03 | 52.31788 | 4.78025 | 6 ft | 189 kts | 84° |
| 2026-05-07 15:03 | 52.31857 | 4.80289 | 557 ft | 195 kts | 86° |
| 2026-05-07 15:03 | 52.31879 | 4.82473 | 1414 ft | 195 kts | 86° |
| 2026-05-07 15:04 | 52.31898 | 4.84685 | 2150 ft | 199 kts | 87° |
| 2026-05-07 15:04 | 52.31892 | 4.87023 | 2652 ft | 212 kts | 89° |
| 2026-05-07 15:04 | 52.31763 | 4.89454 | 3384 ft | 215 kts | 98° |
| 2026-05-07 15:04 | 52.31372 | 4.91751 | 4257 ft | 209 kts | 109° |
| 2026-05-07 15:05 | 52.30858 | 4.94025 | 4886 ft | 217 kts | 110° |
| 2026-05-07 15:05 | 52.30315 | 4.96376 | 5448 ft | 227 kts | 111° |
| 2026-05-07 15:05 | 52.29761 | 4.98816 | 6051 ft | 235 kts | 108° |
| 2026-05-07 15:05 | 52.29294 | 5.01385 | 6812 ft | 236 kts | 110° |
| 2026-05-07 15:06 | 52.28665 | 5.04015 | 7075 ft | 260 kts | 113° |
| 2026-05-07 15:06 | 52.27985 | 5.06781 | 7672 ft | 270 kts | 111° |
| 2026-05-07 15:06 | 52.27329 | 5.09734 | 8362 ft | 278 kts | 110° |
| 2026-05-07 15:06 | 52.26726 | 5.12734 | 9048 ft | 285 kts | 108° |
| 2026-05-07 15:07 | 52.26148 | 5.15857 | 9855 ft | 290 kts | 107° |
| 2026-05-07 15:07 | 52.25578 | 5.19055 | 10551 ft | 298 kts | 107° |
| 2026-05-07 15:07 | 52.24982 | 5.22426 | 10818 ft | 323 kts | 107° |
| 2026-05-07 15:07 | 52.24275 | 5.26052 | 11023 ft | 344 kts | 115° |
| 2026-05-07 15:08 | 52.22980 | 5.29480 | 11288 ft | 366 kts | 127° |
| 2026-05-07 15:08 | 52.21436 | 5.32846 | 11999 ft | 376 kts | 127° |
| 2026-05-07 15:08 | 52.19864 | 5.36311 | 12939 ft | 383 kts | 127° |
| 2026-05-07 15:08 | 52.18307 | 5.39798 | 13901 ft | 390 kts | 126° |
| 2026-05-07 15:09 | 52.16718 | 5.43406 | 14810 ft | 394 kts | 126° |
| 2026-05-07 15:09 | 52.15135 | 5.47027 | 15679 ft | 400 kts | 126° |
| 2026-05-07 15:09 | 52.13521 | 5.50729 | 16543 ft | 405 kts | 126° |
| 2026-05-07 15:09 | 52.11872 | 5.54506 | 17456 ft | 411 kts | 126° |
| 2026-05-07 15:10 | 52.10206 | 5.58312 | 18308 ft | 416 kts | 126° |
| 2026-05-07 15:10 | 52.08510 | 5.62179 | 19088 ft | 421 kts | 126° |
| 2026-05-07 15:10 | 52.06805 | 5.66060 | 19892 ft | 425 kts | 126° |
| 2026-05-07 15:10 | 52.05021 | 5.69918 | 20647 ft | 429 kts | 130° |
| 2026-05-07 15:11 | 52.03054 | 5.73606 | 21396 ft | 433 kts | 133° |
| 2026-05-07 15:11 | 52.01029 | 5.77251 | 22128 ft | 438 kts | 133° |
| 2026-05-07 15:11 | 51.99023 | 5.80926 | 22824 ft | 443 kts | 132° |
| 2026-05-07 15:11 | 51.96986 | 5.84720 | 23517 ft | 448 kts | 132° |
| 2026-05-07 15:12 | 51.94941 | 5.88539 | 24123 ft | 452 kts | 132° |
| 2026-05-07 15:12 | 51.92865 | 5.92410 | 24736 ft | 455 kts | 132° |
| 2026-05-07 15:12 | 51.90781 | 5.96287 | 25338 ft | 459 kts | 132° |
| 2026-05-07 15:12 | 51.88683 | 6.00185 | 25891 ft | 462 kts | 132° |
| 2026-05-07 15:13 | 51.86558 | 6.04124 | 26444 ft | 466 kts | 132° |
| 2026-05-07 15:13 | 51.84413 | 6.08086 | 26968 ft | 469 kts | 133° |
| 2026-05-07 15:13 | 51.82271 | 6.12008 | 27497 ft | 473 kts | 133° |
| 2026-05-07 15:13 | 51.80086 | 6.15998 | 27996 ft | 476 kts | 133° |
| 2026-05-07 15:14 | 51.77882 | 6.20021 | 28490 ft | 480 kts | 133° |
| 2026-05-07 15:14 | 51.75662 | 6.24071 | 28948 ft | 483 kts | 133° |
| 2026-05-07 15:14 | 51.73431 | 6.28144 | 29384 ft | 486 kts | 133° |
| 2026-05-07 15:14 | 51.71185 | 6.32241 | 29812 ft | 489 kts | 133° |
| 2026-05-07 15:15 | 51.68921 | 6.36369 | 30189 ft | 491 kts | 133° |
| 2026-05-07 15:15 | 51.66658 | 6.40491 | 30634 ft | 491 kts | 133° |
| 2026-05-07 15:15 | 51.64396 | 6.44598 | 31097 ft | 490 kts | 133° |
| 2026-05-07 15:15 | 51.62168 | 6.48636 | 31548 ft | 489 kts | 133° |
| 2026-05-07 15:16 | 51.59912 | 6.52717 | 31992 ft | 489 kts | 133° |
| 2026-05-07 15:16 | 51.57648 | 6.56807 | 32409 ft | 489 kts | 133° |
| 2026-05-07 15:16 | 51.55390 | 6.60882 | 32832 ft | 488 kts | 133° |
| 2026-05-07 15:16 | 51.53123 | 6.64966 | 33243 ft | 488 kts | 133° |
| 2026-05-07 15:17 | 51.50862 | 6.69033 | 33661 ft | 488 kts | 133° |
| 2026-05-07 15:17 | 51.48612 | 6.73080 | 34063 ft | 487 kts | 133° |
| 2026-05-07 15:17 | 51.46350 | 6.77139 | 34393 ft | 487 kts | 133° |
| 2026-05-07 15:17 | 51.44117 | 6.81143 | 34711 ft | 487 kts | 132° |
| 2026-05-07 15:18 | 51.42027 | 6.85422 | 34996 ft | 488 kts | 124° |
| 2026-05-07 15:18 | 51.40261 | 6.90046 | 35317 ft | 488 kts | 119° |
| 2026-05-07 15:18 | 51.38760 | 6.94926 | 35611 ft | 489 kts | 113° |
| 2026-05-07 15:18 | 51.37559 | 7.00029 | 35911 ft | 489 kts | 110° |
| 2026-05-07 15:19 | 51.36427 | 7.05142 | 36207 ft | 489 kts | 110° |
| 2026-05-07 15:19 | 51.35303 | 7.10263 | 36477 ft | 489 kts | 110° |
| 2026-05-07 15:19 | 51.34166 | 7.15408 | 36764 ft | 489 kts | 110° |
| 2026-05-07 15:19 | 51.33033 | 7.20468 | 36985 ft | 490 kts | 110° |
| 2026-05-07 15:20 | 51.30687 | 7.30773 | 37054 ft | 494 kts | 111° |
| 2026-05-07 15:20 | 51.28325 | 7.41032 | 37054 ft | 489 kts | 111° |
| 2026-05-07 15:21 | 51.25975 | 7.51194 | 37072 ft | 487 kts | 111° |
| 2026-05-07 15:21 | 51.23641 | 7.61248 | 37052 ft | 486 kts | 111° |
| 2026-05-07 15:22 | 51.21283 | 7.71365 | 37065 ft | 487 kts | 111° |
| 2026-05-07 15:22 | 51.18917 | 7.81470 | 37058 ft | 488 kts | 111° |
| 2026-05-07 15:23 | 51.16547 | 7.91597 | 37070 ft | 489 kts | 110° |
| 2026-05-07 15:23 | 51.14314 | 8.01863 | 37062 ft | 490 kts | 109° |
| 2026-05-07 15:24 | 51.12136 | 8.12085 | 37045 ft | 491 kts | 109° |
| 2026-05-07 15:24 | 51.09909 | 8.22369 | 37058 ft | 492 kts | 110° |
| 2026-05-07 15:25 | 51.07661 | 8.32624 | 37058 ft | 492 kts | 110° |
| 2026-05-07 15:25 | 51.05399 | 8.42898 | 37054 ft | 492 kts | 110° |
| 2026-05-07 15:26 | 51.03134 | 8.53084 | 37061 ft | 491 kts | 112° |
| 2026-05-07 15:26 | 51.00066 | 8.62746 | 37054 ft | 489 kts | 123° |
| 2026-05-07 15:27 | 50.96043 | 8.71409 | 37059 ft | 488 kts | 129° |
| 2026-05-07 15:27 | 50.91831 | 8.79851 | 37049 ft | 488 kts | 129° |
| 2026-05-07 15:28 | 50.87649 | 8.88307 | 37053 ft | 488 kts | 129° |
| 2026-05-07 15:28 | 50.83501 | 8.96742 | 37050 ft | 489 kts | 129° |
| 2026-05-07 15:29 | 50.79330 | 9.05204 | 37050 ft | 489 kts | 129° |
| 2026-05-07 15:29 | 50.75140 | 9.13673 | 37041 ft | 489 kts | 129° |
| 2026-05-07 15:30 | 50.71125 | 9.22263 | 37051 ft | 490 kts | 123° |
| 2026-05-07 15:30 | 50.67884 | 9.31718 | 37056 ft | 490 kts | 118° |
| 2026-05-07 15:31 | 50.64754 | 9.41261 | 37054 ft | 491 kts | 118° |
| 2026-05-07 15:31 | 50.61581 | 9.50788 | 37047 ft | 491 kts | 118° |
| 2026-05-07 15:32 | 50.58378 | 9.60284 | 37051 ft | 491 kts | 119° |
| 2026-05-07 15:32 | 50.55186 | 9.69693 | 37051 ft | 491 kts | 119° |
| 2026-05-07 15:33 | 50.51965 | 9.79159 | 37049 ft | 492 kts | 119° |
| 2026-05-07 15:33 | 50.48724 | 9.88651 | 37051 ft | 492 kts | 119° |
| 2026-05-07 15:34 | 50.45504 | 9.98051 | 37053 ft | 492 kts | 119° |
| 2026-05-07 15:34 | 50.42254 | 10.07501 | 37038 ft | 492 kts | 119° |
| 2026-05-07 15:35 | 50.39002 | 10.16924 | 37047 ft | 492 kts | 119° |
| 2026-05-07 15:35 | 50.35742 | 10.26340 | 37036 ft | 492 kts | 119° |
| 2026-05-07 15:36 | 50.32809 | 10.36052 | 37050 ft | 492 kts | 115° |
| 2026-05-07 15:36 | 50.30075 | 10.45794 | 37032 ft | 493 kts | 115° |
| 2026-05-07 15:37 | 50.27306 | 10.55603 | 37042 ft | 493 kts | 115° |
| 2026-05-07 15:37 | 50.24512 | 10.65384 | 37042 ft | 494 kts | 115° |
| 2026-05-07 15:38 | 50.21691 | 10.75179 | 37020 ft | 495 kts | 115° |
| 2026-05-07 15:38 | 50.18871 | 10.84928 | 37035 ft | 494 kts | 115° |
| 2026-05-07 15:39 | 50.16037 | 10.94688 | 37028 ft | 494 kts | 115° |
| 2026-05-07 15:39 | 50.13191 | 11.04452 | 37025 ft | 494 kts | 115° |
| 2026-05-07 15:40 | 50.10366 | 11.14109 | 37030 ft | 494 kts | 116° |
| 2026-05-07 15:40 | 50.07505 | 11.23848 | 37025 ft | 493 kts | 116° |
| 2026-05-07 15:41 | 50.04647 | 11.33536 | 37024 ft | 494 kts | 116° |
| 2026-05-07 15:41 | 50.01770 | 11.43251 | 37023 ft | 494 kts | 116° |
| 2026-05-07 15:42 | 49.98897 | 11.52913 | 37022 ft | 494 kts | 116° |
| 2026-05-07 15:42 | 49.96009 | 11.62590 | 37017 ft | 494 kts | 116° |
| 2026-05-07 15:43 | 49.93128 | 11.72202 | 37017 ft | 495 kts | 116° |
| 2026-05-07 15:43 | 49.90209 | 11.81901 | 37011 ft | 495 kts | 116° |
| 2026-05-07 15:44 | 49.87293 | 11.91555 | 37016 ft | 495 kts | 116° |
| 2026-05-07 15:44 | 49.84379 | 12.01163 | 37007 ft | 495 kts | 117° |
| 2026-05-07 15:45 | 49.81443 | 12.10807 | 37011 ft | 496 kts | 117° |
| 2026-05-07 15:45 | 49.78492 | 12.20465 | 37016 ft | 496 kts | 117° |
| 2026-05-07 15:46 | 49.74053 | 12.34921 | 37010 ft | 495 kts | 117° |
| 2026-05-07 15:47 | 49.71147 | 12.44503 | 37008 ft | 495 kts | 114° |
| 2026-05-07 15:47 | 49.69078 | 12.54657 | 37010 ft | 497 kts | 103° |
| 2026-05-07 15:48 | 49.67722 | 12.65104 | 37007 ft | 497 kts | 103° |
| 2026-05-07 15:48 | 49.66227 | 12.75517 | 37000 ft | 496 kts | 108° |
| 2026-05-07 15:49 | 49.63634 | 12.85229 | 36992 ft | 492 kts | 120° |
| 2026-05-07 15:49 | 49.59930 | 12.94056 | 37015 ft | 490 kts | 128° |
| 2026-05-07 15:50 | 49.55965 | 13.02595 | 37008 ft | 490 kts | 128° |
| 2026-05-07 15:50 | 49.51997 | 13.11171 | 36980 ft | 491 kts | 128° |
| 2026-05-07 15:51 | 49.48061 | 13.19749 | 36998 ft | 492 kts | 127° |
| 2026-05-07 15:51 | 49.44144 | 13.28295 | 36994 ft | 492 kts | 128° |
| 2026-05-07 15:52 | 49.40201 | 13.36869 | 36998 ft | 492 kts | 128° |
| 2026-05-07 15:52 | 49.36243 | 13.45444 | 36994 ft | 492 kts | 128° |
| 2026-05-07 15:53 | 49.32283 | 13.53994 | 36999 ft | 492 kts | 128° |
| 2026-05-07 15:53 | 49.28341 | 13.62477 | 36998 ft | 492 kts | 128° |
| 2026-05-07 15:54 | 49.24362 | 13.71009 | 36993 ft | 492 kts | 128° |
| 2026-05-07 15:54 | 49.20383 | 13.79519 | 36990 ft | 492 kts | 128° |
| 2026-05-07 15:55 | 49.16403 | 13.88003 | 36987 ft | 492 kts | 128° |
| 2026-05-07 15:55 | 49.12438 | 13.96428 | 36987 ft | 491 kts | 128° |
| 2026-05-07 15:56 | 49.08444 | 14.04888 | 36976 ft | 491 kts | 129° |
| 2026-05-07 15:56 | 49.04451 | 14.13323 | 36986 ft | 490 kts | 129° |
| 2026-05-07 15:57 | 49.00457 | 14.21731 | 36979 ft | 490 kts | 129° |
| 2026-05-07 15:57 | 48.96479 | 14.30084 | 36978 ft | 490 kts | 129° |
| 2026-05-07 15:58 | 48.92662 | 14.38659 | 36978 ft | 491 kts | 125° |
| 2026-05-07 15:58 | 48.89071 | 14.47505 | 36968 ft | 491 kts | 124° |
| 2026-05-07 15:59 | 48.85495 | 14.56331 | 36968 ft | 491 kts | 125° |
| 2026-05-07 15:59 | 48.81912 | 14.65086 | 36964 ft | 491 kts | 125° |
| 2026-05-07 16:00 | 48.78295 | 14.73864 | 36965 ft | 491 kts | 126° |
| 2026-05-07 16:00 | 48.74664 | 14.82639 | 36962 ft | 491 kts | 126° |
| 2026-05-07 16:01 | 48.71031 | 14.91392 | 36964 ft | 491 kts | 126° |
| 2026-05-07 16:01 | 48.67408 | 15.00096 | 36957 ft | 492 kts | 126° |
| 2026-05-07 16:02 | 48.63754 | 15.08844 | 36961 ft | 493 kts | 126° |
| 2026-05-07 16:02 | 48.60082 | 15.17607 | 36956 ft | 493 kts | 126° |
| 2026-05-07 16:03 | 48.56413 | 15.26339 | 36952 ft | 493 kts | 126° |
| 2026-05-07 16:03 | 48.52726 | 15.35080 | 36956 ft | 493 kts | 126° |
| 2026-05-07 16:04 | 48.49066 | 15.43731 | 36954 ft | 493 kts | 127° |
| 2026-05-07 16:04 | 48.45378 | 15.52417 | 36958 ft | 493 kts | 127° |
| 2026-05-07 16:05 | 48.41673 | 15.61118 | 36951 ft | 493 kts | 127° |
| 2026-05-07 16:05 | 48.37966 | 15.69798 | 36950 ft | 493 kts | 127° |
| 2026-05-07 16:06 | 48.34258 | 15.78450 | 36953 ft | 492 kts | 127° |
| 2026-05-07 16:06 | 48.30569 | 15.87029 | 36943 ft | 492 kts | 127° |
| 2026-05-07 16:07 | 48.26851 | 15.95650 | 36962 ft | 492 kts | 127° |
| 2026-05-07 16:07 | 48.23125 | 16.04261 | 36964 ft | 492 kts | 127° |
| 2026-05-07 16:08 | 48.19416 | 16.12806 | 36963 ft | 491 kts | 128° |
| 2026-05-07 16:08 | 48.15662 | 16.21426 | 36958 ft | 491 kts | 128° |
| 2026-05-07 16:09 | 48.11952 | 16.29920 | 36959 ft | 491 kts | 128° |
| 2026-05-07 16:09 | 48.08208 | 16.38465 | 36951 ft | 490 kts | 128° |
| 2026-05-07 16:10 | 48.04465 | 16.46978 | 36958 ft | 490 kts | 128° |
| 2026-05-07 16:10 | 48.00734 | 16.55439 | 36961 ft | 490 kts | 128° |
| 2026-05-07 16:11 | 47.96984 | 16.63917 | 36967 ft | 491 kts | 128° |
| 2026-05-07 16:11 | 47.93211 | 16.72419 | 36959 ft | 491 kts | 128° |
| 2026-05-07 16:12 | 47.89435 | 16.80906 | 36958 ft | 491 kts | 128° |
| 2026-05-07 16:12 | 47.85658 | 16.89366 | 36947 ft | 490 kts | 128° |
| 2026-05-07 16:13 | 47.81900 | 16.97759 | 36957 ft | 490 kts | 129° |
| 2026-05-07 16:13 | 47.78119 | 17.06175 | 36952 ft | 489 kts | 129° |
| 2026-05-07 16:14 | 47.74345 | 17.14550 | 36954 ft | 487 kts | 129° |
| 2026-05-07 16:14 | 47.70567 | 17.22911 | 36952 ft | 486 kts | 129° |
| 2026-05-07 16:15 | 47.66799 | 17.31224 | 36949 ft | 486 kts | 129° |
| 2026-05-07 16:15 | 47.63047 | 17.39479 | 36952 ft | 485 kts | 129° |
| 2026-05-07 16:16 | 47.59011 | 17.47414 | 36963 ft | 481 kts | 134° |
| 2026-05-07 16:16 | 47.54840 | 17.55153 | 36962 ft | 482 kts | 134° |
| 2026-05-07 16:17 | 47.51362 | 17.61622 | 36965 ft | 483 kts | 134° |
| 2026-05-07 16:17 | 47.46510 | 17.70685 | 36966 ft | 484 kts | 134° |
| 2026-05-07 16:18 | 47.42331 | 17.78479 | 36964 ft | 485 kts | 134° |
| 2026-05-07 16:18 | 47.38843 | 17.84964 | 36972 ft | 486 kts | 133° |
| 2026-05-07 16:19 | 47.34836 | 17.93028 | 36977 ft | 489 kts | 130° |
| 2026-05-07 16:19 | 47.30269 | 18.02556 | 36969 ft | 490 kts | 130° |
| 2026-05-07 16:20 | 47.26325 | 18.10730 | 36973 ft | 489 kts | 130° |
| 2026-05-07 16:20 | 47.23030 | 18.17504 | 36973 ft | 490 kts | 131° |
| 2026-05-07 16:21 | 47.19056 | 18.25639 | 36979 ft | 490 kts | 131° |
| 2026-05-07 16:21 | 47.15081 | 18.33752 | 36972 ft | 489 kts | 131° |
| 2026-05-07 16:22 | 47.11100 | 18.41858 | 36977 ft | 489 kts | 131° |
| 2026-05-07 16:22 | 47.07145 | 18.49887 | 36983 ft | 488 kts | 131° |
| 2026-05-07 16:23 | 47.03158 | 18.57958 | 36993 ft | 488 kts | 131° |
| 2026-05-07 16:23 | 46.99172 | 18.66007 | 36996 ft | 488 kts | 131° |
| 2026-05-07 16:24 | 46.95171 | 18.74059 | 36984 ft | 488 kts | 131° |
| 2026-05-07 16:24 | 46.91157 | 18.82066 | 36988 ft | 488 kts | 131° |
| 2026-05-07 16:25 | 46.87158 | 18.90006 | 36989 ft | 488 kts | 131° |
| 2026-05-07 16:25 | 46.83129 | 18.97986 | 36998 ft | 489 kts | 131° |
| 2026-05-07 16:26 | 46.79107 | 19.05938 | 36997 ft | 489 kts | 131° |
| 2026-05-07 16:26 | 46.75036 | 19.13966 | 37000 ft | 490 kts | 131° |
| 2026-05-07 16:27 | 46.71003 | 19.21895 | 37006 ft | 490 kts | 131° |
| 2026-05-07 16:27 | 46.66943 | 19.29854 | 37006 ft | 491 kts | 131° |
| 2026-05-07 16:28 | 46.62859 | 19.37838 | 37010 ft | 492 kts | 131° |
| 2026-05-07 16:28 | 46.58756 | 19.45835 | 37003 ft | 493 kts | 131° |
| 2026-05-07 16:29 | 46.54672 | 19.53773 | 37012 ft | 493 kts | 131° |
| 2026-05-07 16:29 | 46.50551 | 19.61760 | 37012 ft | 495 kts | 131° |
| 2026-05-07 16:29 | 46.48505 | 19.65716 | 37146 ft | 495 kts | 131° |
| 2026-05-07 16:30 | 46.46432 | 19.69722 | 37517 ft | 493 kts | 131° |
| 2026-05-07 16:30 | 46.44398 | 19.73649 | 37906 ft | 491 kts | 131° |
| 2026-05-07 16:30 | 46.42337 | 19.77622 | 38251 ft | 489 kts | 131° |
| 2026-05-07 16:30 | 46.40313 | 19.81515 | 38684 ft | 485 kts | 131° |
| 2026-05-07 16:31 | 46.38280 | 19.85355 | 39022 ft | 481 kts | 132° |
| 2026-05-07 16:31 | 46.34030 | 19.92865 | 39012 ft | 482 kts | 134° |
| 2026-05-07 16:32 | 46.29758 | 20.00236 | 39001 ft | 478 kts | 134° |
| 2026-05-07 16:32 | 46.25510 | 20.07605 | 38998 ft | 476 kts | 134° |
| 2026-05-07 16:33 | 46.21292 | 20.14957 | 38998 ft | 475 kts | 134° |
| 2026-05-07 16:33 | 46.17080 | 20.22301 | 39006 ft | 476 kts | 134° |
| 2026-05-07 16:34 | 46.12856 | 20.29643 | 39004 ft | 477 kts | 134° |
| 2026-05-07 16:34 | 46.08615 | 20.36994 | 38999 ft | 480 kts | 134° |
| 2026-05-07 16:35 | 46.04347 | 20.44372 | 39006 ft | 482 kts | 134° |
| 2026-05-07 16:35 | 46.00044 | 20.51792 | 38998 ft | 483 kts | 134° |
| 2026-05-07 16:36 | 45.95722 | 20.59225 | 38996 ft | 484 kts | 134° |
| 2026-05-07 16:36 | 45.91405 | 20.66627 | 38997 ft | 485 kts | 134° |
| 2026-05-07 16:37 | 45.87088 | 20.74013 | 38995 ft | 485 kts | 134° |
| 2026-05-07 16:37 | 45.82752 | 20.81410 | 38995 ft | 484 kts | 134° |
| 2026-05-07 16:38 | 45.78414 | 20.88790 | 38994 ft | 484 kts | 134° |
| 2026-05-07 16:38 | 45.74076 | 20.96150 | 38991 ft | 483 kts | 134° |
| 2026-05-07 16:39 | 45.69766 | 21.03444 | 38993 ft | 483 kts | 134° |
| 2026-05-07 16:39 | 45.65431 | 21.10761 | 38995 ft | 482 kts | 134° |
| 2026-05-07 16:40 | 45.61097 | 21.18058 | 38994 ft | 482 kts | 134° |
| 2026-05-07 16:40 | 45.56740 | 21.25373 | 38997 ft | 483 kts | 134° |
| 2026-05-07 16:41 | 45.52395 | 21.32648 | 38995 ft | 483 kts | 134° |
| 2026-05-07 16:41 | 45.48028 | 21.39943 | 38995 ft | 483 kts | 134° |
| 2026-05-07 16:42 | 45.43707 | 21.47144 | 38772 ft | 480 kts | 134° |
| 2026-05-07 16:42 | 45.41527 | 21.50768 | 38378 ft | 482 kts | 134° |
| 2026-05-07 16:42 | 45.39335 | 21.54406 | 37813 ft | 486 kts | 134° |
| 2026-05-07 16:42 | 45.37129 | 21.58060 | 37239 ft | 490 kts | 134° |
| 2026-05-07 16:43 | 45.34918 | 21.61721 | 37047 ft | 491 kts | 134° |
| 2026-05-07 16:43 | 45.30439 | 21.69124 | 37021 ft | 495 kts | 134° |
| 2026-05-07 16:44 | 45.25954 | 21.76522 | 37006 ft | 499 kts | 133° |
| 2026-05-07 16:44 | 45.21426 | 21.83968 | 37026 ft | 499 kts | 133° |
| 2026-05-07 16:45 | 45.16849 | 21.91471 | 37036 ft | 506 kts | 133° |
| 2026-05-07 16:45 | 45.12224 | 21.99034 | 37034 ft | 509 kts | 133° |
| 2026-05-07 16:46 | 45.07608 | 22.06566 | 37037 ft | 510 kts | 133° |
| 2026-05-07 16:46 | 45.02964 | 22.14121 | 37035 ft | 509 kts | 133° |
| 2026-05-07 16:47 | 44.98314 | 22.21665 | 37037 ft | 507 kts | 133° |
| 2026-05-07 16:47 | 44.93680 | 22.29164 | 37041 ft | 506 kts | 133° |
| 2026-05-07 16:48 | 44.89048 | 22.36639 | 37035 ft | 505 kts | 133° |
| 2026-05-07 16:48 | 44.84450 | 22.44038 | 37046 ft | 505 kts | 133° |
| 2026-05-07 16:49 | 44.79818 | 22.51472 | 37044 ft | 505 kts | 133° |
| 2026-05-07 16:49 | 44.75160 | 22.58928 | 37045 ft | 509 kts | 133° |
| 2026-05-07 16:50 | 44.70455 | 22.66438 | 37048 ft | 514 kts | 133° |
| 2026-05-07 16:50 | 44.65753 | 22.73926 | 37045 ft | 513 kts | 133° |
| 2026-05-07 16:51 | 44.61077 | 22.81356 | 37025 ft | 505 kts | 133° |
| 2026-05-07 16:51 | 44.56403 | 22.88759 | 37030 ft | 506 kts | 133° |
| 2026-05-07 16:52 | 44.51731 | 22.96138 | 37038 ft | 508 kts | 133° |
| 2026-05-07 16:52 | 44.47059 | 23.03499 | 37038 ft | 509 kts | 133° |
| 2026-05-07 16:53 | 44.42343 | 23.10910 | 37035 ft | 511 kts | 133° |
| 2026-05-07 16:53 | 44.37603 | 23.18340 | 37035 ft | 512 kts | 133° |
| 2026-05-07 16:54 | 44.32864 | 23.25749 | 37037 ft | 512 kts | 133° |
| 2026-05-07 16:54 | 44.28106 | 23.33168 | 37035 ft | 513 kts | 133° |
| 2026-05-07 16:55 | 44.23376 | 23.40524 | 37030 ft | 513 kts | 133° |
| 2026-05-07 16:55 | 44.18611 | 23.47915 | 37036 ft | 513 kts | 133° |
| 2026-05-07 16:56 | 44.13829 | 23.55312 | 37036 ft | 513 kts | 133° |
| 2026-05-07 16:56 | 44.06687 | 23.66326 | 37039 ft | 513 kts | 133° |
| 2026-05-07 16:57 | 44.01907 | 23.73672 | 37038 ft | 514 kts | 133° |
| 2026-05-07 16:57 | 43.97106 | 23.81033 | 37036 ft | 514 kts | 133° |
| 2026-05-07 16:58 | 43.92293 | 23.88392 | 37038 ft | 514 kts | 133° |
| 2026-05-07 16:58 | 43.87512 | 23.95684 | 37039 ft | 515 kts | 133° |
| 2026-05-07 16:59 | 43.82694 | 24.03012 | 37040 ft | 515 kts | 133° |
| 2026-05-07 16:59 | 43.77858 | 24.10351 | 37041 ft | 515 kts | 133° |
| 2026-05-07 17:00 | 43.73032 | 24.17658 | 37040 ft | 516 kts | 133° |
| 2026-05-07 17:00 | 43.68187 | 24.24906 | 37043 ft | 516 kts | 135° |
| 2026-05-07 17:01 | 43.63043 | 24.31826 | 37044 ft | 517 kts | 136° |
| 2026-05-07 17:01 | 43.57842 | 24.38664 | 37045 ft | 517 kts | 136° |
| 2026-05-07 17:02 | 43.52639 | 24.45529 | 37046 ft | 518 kts | 136° |
| 2026-05-07 17:02 | 43.47446 | 24.52405 | 37048 ft | 518 kts | 136° |
| 2026-05-07 17:03 | 43.42279 | 24.59239 | 37056 ft | 519 kts | 136° |
| 2026-05-07 17:03 | 43.37072 | 24.66101 | 37049 ft | 520 kts | 136° |
| 2026-05-07 17:04 | 43.31847 | 24.72969 | 37054 ft | 520 kts | 136° |
| 2026-05-07 17:04 | 43.26617 | 24.79827 | 37047 ft | 520 kts | 136° |
| 2026-05-07 17:05 | 43.21379 | 24.86680 | 37049 ft | 519 kts | 136° |
| 2026-05-07 17:05 | 43.16191 | 24.93452 | 37042 ft | 519 kts | 136° |
| 2026-05-07 17:06 | 43.10953 | 25.00270 | 37047 ft | 519 kts | 136° |
| 2026-05-07 17:06 | 43.05727 | 25.07062 | 37052 ft | 519 kts | 136° |
| 2026-05-07 17:07 | 43.00521 | 25.13818 | 37049 ft | 518 kts | 136° |
| 2026-05-07 17:07 | 42.95294 | 25.20586 | 37047 ft | 519 kts | 136° |
| 2026-05-07 17:08 | 42.90059 | 25.27348 | 37050 ft | 519 kts | 136° |
| 2026-05-07 17:08 | 42.84819 | 25.34099 | 37047 ft | 519 kts | 136° |
| 2026-05-07 17:09 | 42.79586 | 25.40826 | 37052 ft | 520 kts | 136° |
| 2026-05-07 17:09 | 42.74325 | 25.47569 | 37054 ft | 521 kts | 136° |
| 2026-05-07 17:10 | 42.69040 | 25.54329 | 37052 ft | 521 kts | 136° |
| 2026-05-07 17:10 | 42.63745 | 25.61084 | 37058 ft | 522 kts | 136° |
| 2026-05-07 17:11 | 42.58451 | 25.67821 | 37044 ft | 522 kts | 136° |
| 2026-05-07 17:11 | 42.53176 | 25.74519 | 37047 ft | 523 kts | 136° |
| 2026-05-07 17:12 | 42.47865 | 25.81246 | 37038 ft | 523 kts | 136° |
| 2026-05-07 17:12 | 42.42547 | 25.87964 | 37039 ft | 522 kts | 136° |
| 2026-05-07 17:13 | 42.37228 | 25.94669 | 37034 ft | 522 kts | 136° |
| 2026-05-07 17:13 | 42.31942 | 26.01319 | 37035 ft | 522 kts | 136° |
| 2026-05-07 17:14 | 42.26761 | 26.08166 | 37035 ft | 521 kts | 130° |
| 2026-05-07 17:14 | 42.22449 | 26.16000 | 37024 ft | 519 kts | 119° |
| 2026-05-07 17:15 | 42.18933 | 26.24473 | 37032 ft | 518 kts | 117° |
| 2026-05-07 17:15 | 42.15448 | 26.33000 | 37041 ft | 519 kts | 117° |
| 2026-05-07 17:16 | 42.11921 | 26.41477 | 37048 ft | 519 kts | 117° |
| 2026-05-07 17:16 | 42.08393 | 26.49868 | 36593 ft | 522 kts | 117° |
| 2026-05-07 17:17 | 42.06609 | 26.54104 | 35836 ft | 516 kts | 117° |
| 2026-05-07 17:17 | 42.04864 | 26.58233 | 35036 ft | 501 kts | 117° |
| 2026-05-07 17:17 | 42.03138 | 26.62323 | 34251 ft | 505 kts | 117° |
| 2026-05-07 17:17 | 42.01393 | 26.66458 | 33308 ft | 509 kts | 117° |
| 2026-05-07 17:18 | 41.99633 | 26.70624 | 32365 ft | 513 kts | 117° |
| 2026-05-07 17:18 | 41.97866 | 26.74796 | 31406 ft | 516 kts | 117° |
| 2026-05-07 17:18 | 41.96091 | 26.78926 | 30728 ft | 514 kts | 118° |
| 2026-05-07 17:18 | 41.94252 | 26.83013 | 30325 ft | 512 kts | 119° |
| 2026-05-07 17:19 | 41.92384 | 26.87097 | 29837 ft | 515 kts | 119° |
| 2026-05-07 17:19 | 41.90515 | 26.91200 | 29331 ft | 514 kts | 119° |
| 2026-05-07 17:19 | 41.88673 | 26.95264 | 28863 ft | 509 kts | 119° |
| 2026-05-07 17:19 | 41.86834 | 26.99313 | 28415 ft | 504 kts | 119° |
| 2026-05-07 17:20 | 41.85012 | 27.03316 | 27964 ft | 498 kts | 119° |
| 2026-05-07 17:20 | 41.83223 | 27.07242 | 27530 ft | 489 kts | 119° |
| 2026-05-07 17:20 | 41.81487 | 27.11044 | 27108 ft | 480 kts | 119° |
| 2026-05-07 17:20 | 41.79726 | 27.14789 | 26740 ft | 472 kts | 121° |
| 2026-05-07 17:21 | 41.77885 | 27.18377 | 26381 ft | 463 kts | 123° |
| 2026-05-07 17:21 | 41.76038 | 27.21867 | 26075 ft | 451 kts | 123° |
| 2026-05-07 17:21 | 41.74279 | 27.25219 | 25359 ft | 431 kts | 122° |
| 2026-05-07 17:21 | 41.72608 | 27.28454 | 24843 ft | 418 kts | 122° |
| 2026-05-07 17:22 | 41.70947 | 27.31686 | 24386 ft | 424 kts | 123° |
| 2026-05-07 17:22 | 41.69089 | 27.34818 | 23571 ft | 437 kts | 130° |
| 2026-05-07 17:22 | 41.67034 | 27.37836 | 22905 ft | 437 kts | 131° |
| 2026-05-07 17:22 | 41.64978 | 27.40814 | 22359 ft | 435 kts | 131° |
| 2026-05-07 17:23 | 41.62938 | 27.43770 | 21855 ft | 431 kts | 131° |
| 2026-05-07 17:23 | 41.60948 | 27.46665 | 21376 ft | 427 kts | 131° |
| 2026-05-07 17:23 | 41.58985 | 27.49533 | 20858 ft | 408 kts | 131° |
| 2026-05-07 17:23 | 41.57088 | 27.52313 | 20375 ft | 401 kts | 131° |
| 2026-05-07 17:24 | 41.55221 | 27.55056 | 19901 ft | 400 kts | 131° |
| 2026-05-07 17:24 | 41.53348 | 27.57809 | 19429 ft | 399 kts | 131° |
| 2026-05-07 17:24 | 41.51489 | 27.60542 | 18958 ft | 398 kts | 131° |
| 2026-05-07 17:24 | 41.49627 | 27.63275 | 18491 ft | 397 kts | 131° |
| 2026-05-07 17:25 | 41.47765 | 27.66005 | 17949 ft | 396 kts | 131° |
| 2026-05-07 17:25 | 41.45922 | 27.68704 | 17465 ft | 394 kts | 131° |
| 2026-05-07 17:25 | 41.44085 | 27.71392 | 16953 ft | 386 kts | 131° |
| 2026-05-07 17:25 | 41.42331 | 27.73954 | 16506 ft | 362 kts | 131° |
| 2026-05-07 17:26 | 41.40648 | 27.76410 | 16128 ft | 367 kts | 131° |
| 2026-05-07 17:26 | 41.38896 | 27.78970 | 15699 ft | 372 kts | 131° |
| 2026-05-07 17:26 | 41.37175 | 27.81480 | 15249 ft | 373 kts | 131° |
| 2026-05-07 17:26 | 41.35422 | 27.84035 | 14814 ft | 372 kts | 131° |
| 2026-05-07 17:27 | 41.33680 | 27.86571 | 14366 ft | 370 kts | 131° |
| 2026-05-07 17:27 | 41.31949 | 27.89088 | 13932 ft | 369 kts | 131° |
| 2026-05-07 17:27 | 41.30217 | 27.91605 | 13451 ft | 367 kts | 131° |
| 2026-05-07 17:27 | 41.28503 | 27.94094 | 12997 ft | 365 kts | 131° |
| 2026-05-07 17:28 | 41.26792 | 27.96575 | 12552 ft | 363 kts | 131° |
| 2026-05-07 17:28 | 41.25085 | 27.99049 | 12035 ft | 358 kts | 131° |
| 2026-05-07 17:28 | 41.23464 | 28.01395 | 11600 ft | 345 kts | 131° |
| 2026-05-07 17:28 | 41.21844 | 28.03740 | 11240 ft | 343 kts | 131° |
| 2026-05-07 17:29 | 41.20256 | 28.06035 | 10822 ft | 328 kts | 131° |
| 2026-05-07 17:29 | 41.18761 | 28.08195 | 10345 ft | 308 kts | 133° |
| 2026-05-07 17:29 | 41.17361 | 28.10220 | 10021 ft | 289 kts | 133° |
| 2026-05-07 17:29 | 41.16022 | 28.12153 | 9681 ft | 283 kts | 133° |
| 2026-05-07 17:30 | 41.14691 | 28.14073 | 9350 ft | 282 kts | 133° |
| 2026-05-07 17:30 | 41.13369 | 28.15979 | 9007 ft | 282 kts | 133° |
| 2026-05-07 17:30 | 41.12037 | 28.17898 | 8665 ft | 282 kts | 133° |
| 2026-05-07 17:30 | 41.10726 | 28.19784 | 8337 ft | 281 kts | 133° |
| 2026-05-07 17:31 | 41.09402 | 28.21690 | 8008 ft | 281 kts | 133° |
| 2026-05-07 17:31 | 41.08078 | 28.23593 | 7673 ft | 282 kts | 134° |
| 2026-05-07 17:31 | 41.06745 | 28.25508 | 7335 ft | 282 kts | 134° |
| 2026-05-07 17:31 | 41.05414 | 28.27418 | 7023 ft | 282 kts | 134° |
| 2026-05-07 17:32 | 41.04098 | 28.29309 | 6820 ft | 277 kts | 134° |
| 2026-05-07 17:32 | 41.02801 | 28.31169 | 6572 ft | 274 kts | 134° |
| 2026-05-07 17:32 | 41.01508 | 28.33023 | 6170 ft | 277 kts | 134° |
| 2026-05-07 17:32 | 41.00197 | 28.34899 | 5691 ft | 283 kts | 134° |
| 2026-05-07 17:33 | 40.98848 | 28.36828 | 5376 ft | 281 kts | 134° |
| 2026-05-07 17:33 | 40.97550 | 28.38711 | 5103 ft | 278 kts | 130° |
| 2026-05-07 17:33 | 40.96508 | 28.40793 | 5009 ft | 267 kts | 121° |
| 2026-05-07 17:33 | 40.95630 | 28.42905 | 5001 ft | 262 kts | 120° |
| 2026-05-07 17:34 | 40.94754 | 28.45048 | 5001 ft | 264 kts | 120° |
| 2026-05-07 17:34 | 40.93876 | 28.47159 | 4998 ft | 262 kts | 120° |
| 2026-05-07 17:34 | 40.92989 | 28.49258 | 4992 ft | 260 kts | 121° |
| 2026-05-07 17:34 | 40.92100 | 28.51332 | 4991 ft | 259 kts | 121° |
| 2026-05-07 17:35 | 40.91207 | 28.53404 | 4992 ft | 258 kts | 121° |
| 2026-05-07 17:35 | 40.90315 | 28.55468 | 4993 ft | 258 kts | 121° |
| 2026-05-07 17:35 | 40.89501 | 28.57532 | 4987 ft | 256 kts | 108° |
| 2026-05-07 17:35 | 40.89408 | 28.59886 | 5007 ft | 263 kts | 76° |
| 2026-05-07 17:36 | 40.89982 | 28.62214 | 5060 ft | 264 kts | 69° |
| 2026-05-07 17:36 | 40.90586 | 28.64495 | 5029 ft | 266 kts | 70° |
| 2026-05-07 17:36 | 40.91190 | 28.66806 | 5003 ft | 266 kts | 70° |
| 2026-05-07 17:36 | 40.92023 | 28.68898 | 4988 ft | 251 kts | 46° |
| 2026-05-07 17:37 | 40.93379 | 28.70273 | 5002 ft | 244 kts | 26° |
| 2026-05-07 17:37 | 40.94864 | 28.71349 | 5012 ft | 244 kts | 26° |
| 2026-05-07 17:37 | 40.96333 | 28.72419 | 5001 ft | 236 kts | 26° |
| 2026-05-07 17:37 | 40.97777 | 28.73108 | 4983 ft | 215 kts | 3° |
| 2026-05-07 17:38 | 40.99247 | 28.73224 | 5009 ft | 207 kts | 358° |
| 2026-05-07 17:38 | 41.00655 | 28.73250 | 4999 ft | 201 kts | 356° |
| 2026-05-07 17:38 | 41.02027 | 28.73240 | 4954 ft | 196 kts | 356° |
| 2026-05-07 17:38 | 41.03401 | 28.73218 | 4686 ft | 196 kts | 355° |
| 2026-05-07 17:39 | 41.04746 | 28.73194 | 4460 ft | 191 kts | 355° |
| 2026-05-07 17:39 | 41.06068 | 28.73168 | 4201 ft | 189 kts | 355° |
| 2026-05-07 17:39 | 41.07381 | 28.73142 | 3948 ft | 187 kts | 355° |
| 2026-05-07 17:39 | 41.08664 | 28.73118 | 3706 ft | 181 kts | 354° |
| 2026-05-07 17:40 | 41.09897 | 28.73093 | 3468 ft | 176 kts | 354° |
| 2026-05-07 17:40 | 41.11124 | 28.73068 | 3240 ft | 177 kts | 354° |
| 2026-05-07 17:40 | 41.12360 | 28.73044 | 3006 ft | 177 kts | 354° |
| 2026-05-07 17:40 | 41.13595 | 28.73018 | 2783 ft | 178 kts | 354° |
| 2026-05-07 17:41 | 41.14822 | 28.72997 | 2531 ft | 178 kts | 355° |
| 2026-05-07 17:41 | 41.16048 | 28.72974 | 2321 ft | 175 kts | 355° |
| 2026-05-07 17:41 | 41.17268 | 28.72949 | 2088 ft | 173 kts | 356° |
| 2026-05-07 17:41 | 41.18437 | 28.72928 | 1852 ft | 165 kts | 356° |
| 2026-05-07 17:42 | 41.19574 | 28.72905 | 1634 ft | 161 kts | 357° |
| 2026-05-07 17:42 | 41.20694 | 28.72881 | 1370 ft | 161 kts | 357° |
| 2026-05-07 17:42 | 41.21802 | 28.72864 | 1154 ft | 158 kts | 358° |
| 2026-05-07 17:42 | 41.22885 | 28.72843 | 1046 ft | 156 kts | 358° |
| 2026-05-07 17:43 | 41.23979 | 28.72805 | 879 ft | 157 kts | 358° |
| 2026-05-07 17:43 | 41.25074 | 28.72807 | 627 ft | 157 kts | 358° |
| 2026-05-07 17:43 | 41.26132 | 28.72784 | 398 ft | 151 kts | 357° |
| 2026-05-07 17:43 | 41.27113 | 28.72753 | 335 ft | 128 kts | 359° |
| 2026-05-07 17:44 | 41.27881 | 28.72735 | 337 ft | 93 kts | 359° |
| 2026-05-07 17:44 | 41.28389 | 28.72730 | 338 ft | 45 kts | 0° |
| 2026-05-07 17:44 | 41.28623 | 28.72783 | 336 ft | 24 kts | 21° |
| 2026-05-07 17:44 | 41.28711 | 28.72852 | 333 ft | 4 kts | 41° |
| 2026-05-07 17:45 | 41.28713 | 28.72855 | 334 ft | 1 kts | 43° |
| 2026-05-07 17:45 | 41.28722 | 28.72871 | 334 ft | 1 kts | 60° |
| 2026-05-07 17:45 | 41.28723 | 28.72896 | 334 ft | 3 kts | 97° |
| 2026-05-07 17:45 | 41.28707 | 28.72924 | 334 ft | 4 kts | 144° |
| 2026-05-07 17:46 | 41.28675 | 28.72941 | 335 ft | 6 kts | 164° |
| 2026-05-07 17:46 | 41.28625 | 28.72948 | 334 ft | 9 kts | 178° |
| 2026-05-07 17:46 | 41.28550 | 28.72951 | 336 ft | 12 kts | 179° |
| 2026-05-07 17:46 | 41.28442 | 28.72954 | 336 ft | 23 kts | 179° |
| 2026-05-07 17:47 | 41.28250 | 28.72960 | 334 ft | 28 kts | 179° |
| 2026-05-07 17:47 | 41.28052 | 28.72962 | 334 ft | 28 kts | 179° |
| 2026-05-07 17:47 | 41.27854 | 28.72965 | 336 ft | 28 kts | 178° |
| 2026-05-07 17:47 | 41.27657 | 28.72971 | 335 ft | 28 kts | 179° |
| 2026-05-07 17:48 | 41.27458 | 28.72975 | 334 ft | 28 kts | 179° |
| 2026-05-07 17:48 | 41.27261 | 28.72979 | 334 ft | 28 kts | 179° |
| 2026-05-07 17:48 | 41.27066 | 28.72984 | 338 ft | 28 kts | 179° |
| 2026-05-07 17:48 | 41.26895 | 28.72995 | 336 ft | 14 kts | 157° |
| 2026-05-07 17:49 | 41.26871 | 28.73063 | 334 ft | 8 kts | 100° |
| 2026-05-07 17:49 | 41.26867 | 28.73144 | 336 ft | 9 kts | 90° |
| 2026-05-07 17:49 | 41.26867 | 28.73232 | 336 ft | 10 kts | 90° |
| 2026-05-07 17:49 | 41.26868 | 28.73326 | 336 ft | 10 kts | 88° |
| 2026-05-07 17:50 | 41.26871 | 28.73426 | 335 ft | 11 kts | 88° |
| 2026-05-07 17:50 | 41.26852 | 28.73518 | 333 ft | 10 kts | 141° |
| 2026-05-07 17:50 | 41.26801 | 28.73528 | 335 ft | 6 kts | 179° |
| 2026-05-07 17:50 | 41.26789 | 28.73528 | 338 ft | 0 kts | 179° |